Time;durP1;ratioP1;P1;durP2;ratioP2;P2;SDS_P1;SDS_P2;PMS_P1;PMS_P2;Temp;Humidity;BMP_temperature;BMP_pressure;BME280_temperature;BME280_humidity;BME280_pressure;Samples;Min_cycle;Max_cycle;Signal;HPM_P1;HPM_P2
2022/02/02 00:01:04;;;;;;;40.83;27.63;;;5.30;67.80;;;;;;4996426;28;20025;-76
2022/02/02 00:03:30;;;;;;;38.30;22.97;;;5.30;67.60;;;;;;4995933;28;20022;-75
2022/02/02 00:08:46;;;;;;;39.40;23.23;;;5.30;67.30;;;;;;4996198;28;20041;-76
2022/02/02 00:13:57;;;;;;;35.80;22.53;;;5.30;66.80;;;;;;4996133;28;20155;-76
2022/02/02 00:22:26;;;;;;;35.80;21.97;;;5.30;67.10;;;;;;4958686;28;20395;-75
2022/02/02 00:27:14;;;;;;;35.87;20.40;;;5.20;67.00;;;;;;4995847;28;20380;-76
2022/02/02 00:29:45;;;;;;;30.67;18.77;;;5.20;67.10;;;;;;4996049;28;20091;-76
2022/02/02 00:32:50;;;;;;;31.07;17.50;;;5.20;67.20;;;;;;4995833;28;20031;-75
2022/02/02 00:34:57;;;;;;;33.30;18.43;;;5.20;67.30;;;;;;4995354;28;20034;-76
2022/02/02 00:37:23;;;;;;;31.43;18.13;;;5.20;67.20;;;;;;4995716;28;20037;-77
2022/02/02 00:39:49;;;;;;;31.27;18.43;;;5.10;67.10;;;;;;4995807;28;20026;-77
2022/02/02 00:42:15;;;;;;;24.10;15.73;;;5.10;67.30;;;;;;4995679;28;20030;-77
2022/02/02 00:44:48;;;;;;;24.97;15.13;;;5.10;67.40;;;;;;4995694;28;20033;-76
2022/02/02 00:47:20;;;;;;;23.53;14.57;;;5.10;67.50;;;;;;4995654;28;20031;-78
2022/02/02 00:49:48;;;;;;;22.65;13.77;;;5.10;67.40;;;;;;4995399;28;20069;-76
2022/02/02 00:52:14;;;;;;;24.37;14.17;;;5.00;67.40;;;;;;4995514;28;20352;-76
2022/02/02 00:54:39;;;;;;;22.73;14.50;;;5.00;67.30;;;;;;4995303;28;20045;-77
2022/02/02 00:57:05;;;;;;;21.80;13.87;;;5.00;67.50;;;;;;4995392;28;20026;-76
2022/02/02 00:59:31;;;;;;;23.73;13.80;;;4.90;67.60;;;;;;4995249;28;20497;-75
2022/02/02 01:01:57;;;;;;;20.13;13.67;;;4.90;67.80;;;;;;4995009;28;20019;-76
2022/02/02 01:04:22;;;;;;;23.10;13.50;;;4.90;68.20;;;;;;4995422;28;20022;-77
2022/02/02 01:07:08;;;;;;;21.43;13.03;;;5.00;68.50;;;;;;4995031;28;20054;-77
2022/02/02 01:09:44;;;;;;;25.23;15.33;;;4.90;68.60;;;;;;4994671;28;20471;-76
2022/02/02 01:28:26;;;;;;;26.00;16.33;;;4.80;69.00;;;;;;4994738;28;20879;-75
2022/02/02 01:30:52;;;;;;;23.43;15.07;;;4.70;69.30;;;;;;4977176;28;20118;-75
2022/02/02 01:33:18;;;;;;;25.10;15.23;;;4.70;69.50;;;;;;4994661;28;20406;-75
2022/02/02 01:35:44;;;;;;;23.87;15.47;;;4.60;69.60;;;;;;4994499;28;20022;-75
2022/02/02 01:38:11;;;;;;;23.47;15.13;;;4.60;69.80;;;;;;4994711;28;20026;-76
2022/02/02 01:40:42;;;;;;;24.57;14.03;;;4.50;70.00;;;;;;4994554;28;20054;-75
2022/02/02 01:43:16;;;;;;;24.97;15.50;;;4.50;70.20;;;;;;4977337;28;20030;-75
2022/02/02 01:45:47;;;;;;;20.90;13.70;;;4.50;70.20;;;;;;4994557;28;20113;-75
2022/02/02 01:56:05;;;;;;;24.83;14.70;;;4.50;70.00;;;;;;4994107;28;20030;-75
2022/02/02 02:01:13;;;;;;;22.73;13.33;;;4.40;69.70;;;;;;4991640;28;20070;-75
2022/02/02 02:03:39;;;;;;;20.63;13.60;;;4.30;69.80;;;;;;4991451;28;20096;-76
2022/02/02 02:06:06;;;;;;;23.00;14.37;;;4.30;69.80;;;;;;4993797;28;20034;-76
2022/02/02 02:08:35;;;;;;;21.90;14.10;;;4.30;70.00;;;;;;4994179;28;20040;-76
2022/02/02 02:11:02;;;;;;;22.67;13.73;;;4.20;70.10;;;;;;4993876;28;20164;-76
2022/02/02 02:16:14;;;;;;;30.27;15.70;;;4.20;70.00;;;;;;4994081;28;20057;-75
2022/02/02 02:18:39;;;;;;;22.27;13.90;;;4.20;70.10;;;;;;4993702;28;20471;-76
2022/02/02 02:21:14;;;;;;;21.97;13.97;;;4.20;70.00;;;;;;4993339;28;20474;-76
2022/02/02 02:23:40;;;;;;;22.73;13.70;;;4.20;70.20;;;;;;4993785;28;20022;-75
2022/02/02 02:26:07;;;;;;;24.30;13.13;;;4.20;70.40;;;;;;4994010;28;20038;-75
2022/02/02 02:58:49;;;;;;;21.33;11.27;;;4.00;72.50;;;;;;4939359;28;20117;-76
2022/02/02 03:51:21;;;;;;;18.80;10.90;;;4.10;72.70;;;;;;4996996;28;20072;-76
2022/02/02 04:06:27;;;;;;;17.47;9.17;;;4.00;73.50;;;;;;4996408;28;20395;-75
2022/02/02 04:08:53;;;;;;;21.43;10.57;;;4.00;73.40;;;;;;4996175;28;20023;-76
2022/02/02 04:11:30;;;;;;;15.83;9.63;;;4.00;73.10;;;;;;4996508;28;20037;-76
2022/02/02 04:39:16;;;;;;;16.67;11.13;;;3.80;73.00;;;;;;4995705;28;20037;-76
2022/02/02 04:55:25;;;;;;;16.47;10.27;;;3.60;71.40;;;;;;4995583;28;20368;-76
2022/02/02 05:52:25;;;;;;;18.53;10.70;;;3.20;73.70;;;;;;4994489;28;20037;-76
2022/02/02 05:54:51;;;;;;;17.23;10.23;;;3.30;73.80;;;;;;4994530;28;20038;-75
2022/02/02 05:57:18;;;;;;;15.90;10.60;;;3.20;73.70;;;;;;4994336;28;20026;-76
2022/02/02 05:59:44;;;;;;;16.67;9.97;;;3.20;74.00;;;;;;4994364;28;20023;-76
2022/02/02 06:02:12;;;;;;;18.13;10.00;;;3.20;74.00;;;;;;4994219;28;20472;-75
2022/02/02 06:04:46;;;;;;;14.23;9.47;;;3.30;73.80;;;;;;4994409;28;20022;-75
2022/02/02 06:07:13;;;;;;;18.40;9.80;;;3.20;73.90;;;;;;4994392;28;20026;-76
2022/02/02 06:09:44;;;;;;;19.07;11.20;;;3.20;74.10;;;;;;4993981;28;20054;-75
2022/02/02 06:12:10;;;;;;;21.90;10.80;;;3.20;74.20;;;;;;4993788;28;20437;-76
2022/02/02 06:14:39;;;;;;;20.90;10.67;;;3.20;74.20;;;;;;4994021;28;20038;-75
2022/02/02 06:17:07;;;;;;;27.13;9.60;;;3.20;74.40;;;;;;4994181;28;20025;-75
2022/02/02 06:19:33;;;;;;;18.93;8.83;;;3.20;74.70;;;;;;4993711;28;20037;-76
2022/02/02 06:22:18;;;;;;;11.87;7.47;;;3.20;75.30;;;;;;4993798;28;20463;-75
2022/02/02 06:24:56;;;;;;;16.90;9.33;;;3.20;76.20;;;;;;4993790;28;20482;-76
2022/02/02 06:27:24;;;;;;;25.37;12.37;;;3.40;75.60;;;;;;4994057;28;20096;-76
2022/02/02 06:30:10;;;;;;;24.30;11.30;;;3.40;74.60;;;;;;4993970;28;20117;-76
2022/02/02 06:32:37;;;;;;;20.37;10.70;;;3.40;74.10;;;;;;4993368;28;20067;-77
2022/02/02 06:35:05;;;;;;;21.10;10.63;;;3.40;74.10;;;;;;4993986;28;20065;-76
2022/02/02 06:37:30;;;;;;;24.93;11.43;;;3.30;74.00;;;;;;4993460;28;20031;-76
2022/02/02 06:39:57;;;;;;;29.03;11.97;;;3.30;73.90;;;;;;4992928;28;20042;-75
2022/02/02 06:42:23;;;;;;;18.40;11.30;;;3.20;73.70;;;;;;4993531;28;20054;-78
2022/02/02 06:44:50;;;;;;;20.80;11.50;;;3.20;74.10;;;;;;4993439;28;20467;-77
2022/02/02 06:47:17;;;;;;;18.90;11.63;;;3.10;74.10;;;;;;4975431;28;20027;-76
2022/02/02 06:49:46;;;;;;;19.80;11.50;;;3.10;73.90;;;;;;4991995;28;20026;-76
2022/02/02 06:52:20;;;;;;;25.57;12.73;;;3.10;73.90;;;;;;4991416;28;20509;-77
2022/02/02 06:55:10;;;;;;;21.07;12.87;;;3.10;73.80;;;;;;4993155;28;20483;-75
2022/02/02 06:58:25;;;;;;;21.93;12.60;;;3.10;73.90;;;;;;4993232;28;20022;-76
2022/02/02 07:04:05;;;;;;;20.03;11.97;;;3.10;74.20;;;;;;4992804;28;20061;-75
2022/02/02 07:15:16;;;;;;;29.53;14.57;;;3.10;75.00;;;;;;4952159;28;20069;-74
2022/02/02 07:20:18;;;;;;;29.23;15.03;;;3.10;75.90;;;;;;4996888;28;20510;-75
2022/02/02 07:23:15;;;;;;;25.17;13.83;;;3.10;75.70;;;;;;4971160;28;20118;-77
2022/02/02 07:28:56;;;;;;;32.90;15.07;;;3.20;75.00;;;;;;4996484;28;20030;-79
2022/02/02 07:31:04;;;;;;;26.97;14.67;;;3.20;75.10;;;;;;4985605;28;20118;-78
2022/02/02 07:33:37;;;;;;;27.43;15.00;;;3.30;75.30;;;;;;4979017;28;20042;-79
2022/02/02 07:36:14;;;;;;;26.20;14.00;;;3.30;75.10;;;;;;4989758;28;20063;-77
2022/02/02 07:39:12;;;;;;;26.23;13.13;;;3.30;74.90;;;;;;4976366;28;20412;-75
2022/02/02 07:41:44;;;;;;;22.60;13.33;;;3.30;74.70;;;;;;4975908;28;20019;-77
2022/02/02 07:44:17;;;;;;;24.58;14.45;;;3.30;74.60;;;;;;4976628;28;20030;-77
2022/02/02 07:46:48;;;;;;;29.00;15.38;;;3.30;74.90;;;;;;4975957;28;20113;-79
2022/02/02 07:49:22;;;;;;;30.43;15.10;;;3.30;74.90;;;;;;4976007;28;20031;-76
2022/02/02 07:51:51;;;;;;;32.10;15.37;;;3.30;75.00;;;;;;4976867;28;20027;-75
2022/02/02 07:54:22;;;;;;;32.40;14.77;;;3.30;75.00;;;;;;4976746;28;20039;-77
2022/02/02 07:56:49;;;;;;;20.10;11.80;;;3.30;75.20;;;;;;4976650;28;20027;-77
2022/02/02 07:59:22;;;;;;;19.07;11.50;;;3.40;75.20;;;;;;4976310;28;20033;-78
2022/02/02 08:01:51;;;;;;;24.47;12.07;;;3.40;75.30;;;;;;4976656;28;20046;-76
2022/02/02 08:04:19;;;;;;;25.90;13.23;;;3.40;75.70;;;;;;4976759;28;20021;-77
2022/02/02 08:06:50;;;;;;;23.43;13.40;;;3.50;75.50;;;;;;4976805;28;20022;-77
2022/02/02 08:09:29;;;;;;;28.60;13.53;;;3.50;75.70;;;;;;4975026;28;20126;-76
2022/02/02 08:11:55;;;;;;;23.97;11.93;;;3.50;75.60;;;;;;4977131;28;20388;-76
2022/02/02 08:14:22;;;;;;;29.33;13.17;;;3.60;75.60;;;;;;4976815;28;20042;-76
2022/02/02 08:16:48;;;;;;;32.37;14.20;;;3.50;75.80;;;;;;4976597;28;20139;-77
2022/02/02 08:19:16;;;;;;;25.77;15.13;;;3.60;75.80;;;;;;4959230;28;20130;-78
2022/02/02 08:21:43;;;;;;;31.17;14.37;;;3.60;76.30;;;;;;4976225;28;20412;-76
2022/02/02 08:24:09;;;;;;;27.17;15.53;;;3.60;76.70;;;;;;4976521;28;20033;-77
2022/02/02 08:26:35;;;;;;;30.93;15.90;;;3.60;76.90;;;;;;4975409;28;20025;-76
2022/02/02 08:29:01;;;;;;;40.53;18.13;;;3.60;76.80;;;;;;4976411;28;20023;-76
2022/02/02 08:31:27;;;;;;;41.30;23.17;;;3.60;77.10;;;;;;4959375;28;20077;-77
2022/02/02 08:33:57;;;;;;;41.30;21.90;;;3.60;77.20;;;;;;4976306;28;20487;-77
2022/02/02 08:36:23;;;;;;;38.17;20.90;;;3.70;77.20;;;;;;4976258;28;20023;-77
2022/02/02 08:43:56;;;;;;;41.13;21.60;;;3.80;77.20;;;;;;4976544;28;20066;-76
2022/02/02 08:46:37;;;;;;;42.77;22.27;;;3.80;77.30;;;;;;4976338;28;20039;-76
2022/02/02 08:49:07;;;;;;;37.37;21.73;;;3.90;77.20;;;;;;4976055;28;20062;-76
2022/02/02 08:51:39;;;;;;;42.37;21.30;;;3.90;77.20;;;;;;4972828;28;20037;-77
2022/02/02 08:57:03;;;;;;;41.87;20.77;;;4.00;77.00;;;;;;4975882;28;20042;-76
2022/02/02 08:59:26;;;;;;;42.97;22.37;;;4.10;76.80;;;;;;4975207;28;20483;-76
2022/02/02 09:01:53;;;;;;;40.72;21.20;;;4.20;76.90;;;;;;4975999;28;20021;-77
2022/02/02 09:07:04;;;;;;;35.20;19.37;;;4.30;77.20;;;;;;4976427;28;20403;-77
2022/02/02 09:09:53;;;;;;;31.53;18.67;;;4.30;78.40;;;;;;4975638;28;20051;-76
2022/02/02 09:36:13;;;;;;;27.13;14.70;;;5.10;77.40;;;;;;4975154;28;20055;-77
2022/02/02 09:38:39;;;;;;;26.90;14.93;;;5.20;77.00;;;;;;4975386;28;20054;-76
2022/02/02 09:43:56;;;;;;;29.97;13.83;;;5.30;76.70;;;;;;4975263;28;20514;-77
2022/02/02 09:46:28;;;;;;;28.80;13.17;;;5.40;76.60;;;;;;4975467;28;20027;-76
2022/02/02 09:48:58;;;;;;;28.73;14.30;;;5.50;76.20;;;;;;4975121;28;20031;-76
2022/02/02 09:51:36;;;;;;;29.73;14.43;;;5.60;76.00;;;;;;4974253;28;20031;-76
2022/02/02 09:54:23;;;;;;;20.50;13.57;;;5.70;75.90;;;;;;4974845;28;20042;-77
2022/02/02 10:02:59;;;;;;;24.00;12.10;;;5.90;76.30;;;;;;4973898;28;20030;-82
2022/02/02 10:16:16;;;;;;;17.30;8.95;;;6.30;74.90;;;;;;4914864;29;20547;-79
2022/02/02 10:18:41;;;;;;;21.10;10.20;;;6.40;75.20;;;;;;4963584;28;20109;-80
2022/02/02 10:21:07;;;;;;;16.23;8.03;;;6.50;75.10;;;;;;4974242;28;20110;-81
2022/02/02 10:23:35;;;;;;;20.27;7.10;;;6.50;74.70;;;;;;4974918;28;20031;-81
2022/02/02 10:26:20;;;;;;;13.37;7.20;;;6.60;74.60;;;;;;4974562;28;20023;-82
2022/02/02 10:28:48;;;;;;;19.90;8.57;;;6.70;74.30;;;;;;4957399;28;20041;-83
2022/02/02 10:31:14;;;;;;;18.87;9.10;;;6.80;74.00;;;;;;4974691;28;20471;-82
2022/02/02 10:33:40;;;;;;;13.77;8.47;;;6.80;73.80;;;;;;4974470;28;20073;-82
2022/02/02 10:36:13;;;;;;;19.47;8.23;;;6.90;74.00;;;;;;4974618;28;20081;-83
2022/02/02 10:39:01;;;;;;;14.77;7.37;;;7.00;74.00;;;;;;4974150;28;20065;-79
2022/02/02 10:42:00;;;;;;;17.07;7.80;;;7.10;73.80;;;;;;4974891;28;20352;-82
2022/02/02 10:44:34;;;;;;;15.80;7.20;;;7.30;73.70;;;;;;4974386;28;20118;-83
2022/02/02 10:47:19;;;;;;;18.37;8.13;;;7.30;73.20;;;;;;4973900;28;20103;-84
2022/02/02 10:52:40;;;;;;;11.30;3.80;;;7.50;72.80;;;;;;4972201;28;20306;-82
2022/02/02 11:08:49;;;;;;;15.50;5.13;;;8.10;72.00;;;;;;4973856;28;20038;-83
2022/02/02 11:11:15;;;;;;;16.37;4.97;;;8.20;71.10;;;;;;4973106;28;20046;-83
2022/02/02 11:13:42;;;;;;;9.20;4.60;;;8.30;71.00;;;;;;4973457;28;20468;-82
2022/02/02 11:16:13;;;;;;;9.53;5.47;;;8.40;70.50;;;;;;4973862;28;20058;-83
2022/02/02 11:18:43;;;;;;;15.27;4.90;;;8.50;69.60;;;;;;4973754;28;20122;-83
2022/02/02 11:21:11;;;;;;;13.63;5.60;;;8.60;69.10;;;;;;4973761;28;20061;-82
2022/02/02 11:23:49;;;;;;;10.07;4.70;;;8.70;68.70;;;;;;4973551;28;20518;-83
2022/02/02 11:26:42;;;;;;;10.00;5.10;;;8.70;68.50;;;;;;4973791;28;20027;-83
2022/02/02 11:29:08;;;;;;;12.00;5.07;;;8.80;68.00;;;;;;4973715;28;20538;-81
2022/02/02 11:31:34;;;;;;;13.27;5.00;;;8.90;67.70;;;;;;4973575;28;20041;-83
2022/02/02 11:34:01;;;;;;;12.20;5.30;;;8.90;67.30;;;;;;4972671;28;20480;-81
2022/02/02 11:36:39;;;;;;;9.67;5.40;;;9.00;67.10;;;;;;4972942;28;20019;-82
2022/02/02 11:39:09;;;;;;;11.63;5.33;;;9.10;67.30;;;;;;4972159;28;20050;-82
2022/02/02 11:49:56;;;;;;;8.30;4.70;;;9.50;67.10;;;;;;4973842;28;20506;-82
2022/02/02 11:52:42;;;;;;;16.80;5.33;;;9.50;65.70;;;;;;4973335;28;20471;-81
2022/02/02 11:55:28;;;;;;;12.63;5.37;;;9.60;65.00;;;;;;4973704;28;20039;-82
2022/02/02 12:04:09;;;;;;;9.30;4.63;;;9.90;63.80;;;;;;4975162;28;20468;-82
2022/02/02 12:58:33;;;;;;;10.60;4.40;;;11.10;60.30;;;;;;4941608;28;20037;-81
2022/02/02 13:01:12;;;;;;;9.27;4.43;;;11.10;60.40;;;;;;4995258;28;20037;-82
2022/02/02 13:03:39;;;;;;;7.90;4.73;;;11.20;59.20;;;;;;4995084;28;20022;-81
2022/02/02 13:06:17;;;;;;;12.93;5.03;;;11.20;60.00;;;;;;4994885;28;20033;-82
2022/02/02 13:08:46;;;;;;;10.27;4.80;;;11.20;60.00;;;;;;4995098;28;20084;-81
2022/02/02 13:11:11;;;;;;;13.10;4.75;;;11.20;60.40;;;;;;4994455;28;20118;-81
2022/02/02 13:13:37;;;;;;;11.07;4.97;;;11.30;60.10;;;;;;4995150;28;20550;-81
2022/02/02 13:16:12;;;;;;;8.67;5.07;;;11.30;59.50;;;;;;4994859;28;20100;-81
2022/02/02 13:18:44;;;;;;;11.50;4.40;;;11.30;59.10;;;;;;4994909;28;20023;-81
2022/02/02 13:24:09;;;;;;;10.05;5.07;;;11.40;58.70;;;;;;4995057;28;20031;-81
2022/02/02 13:29:24;;;;;;;8.32;4.85;;;11.40;58.90;;;;;;4996572;28;20050;-82
2022/02/02 13:35:19;;;;;;;11.07;5.40;;;11.50;59.60;;;;;;4994918;28;20042;-82
2022/02/02 13:38:15;;;;;;;8.65;5.18;;;11.40;59.30;;;;;;4992059;28;20096;-81
2022/02/02 13:44:24;;;;;;;11.67;5.13;;;11.40;59.50;;;;;;4994760;28;20505;-81
2022/02/02 13:46:38;;;;;;;12.70;6.55;;;11.50;59.10;;;;;;4977648;28;20410;-81
2022/02/02 14:00:33;;;;;;;11.13;6.25;;;11.50;58.90;;;;;;4964155;28;20537;-81
2022/02/02 14:32:48;;;;;;;;;;;11.60;60.30;;;;;;4994378;28;20037;-81
2022/02/02 14:35:17;;;;;;;14.98;7.30;;;11.50;60.30;;;;;;4994041;28;19910;-81
2022/02/02 14:37:58;;;;;;;19.77;8.30;;;11.50;60.20;;;;;;4976214;28;20487;-82
2022/02/02 14:40:45;;;;;;;12.48;6.35;;;11.50;59.80;;;;;;4976400;28;20065;-81
2022/02/02 14:43:16;;;;;;;12.57;6.45;;;11.50;60.30;;;;;;4993915;28;20018;-81
2022/02/02 14:45:47;;;;;;;12.98;6.50;;;11.50;60.10;;;;;;4993574;28;20586;-81
2022/02/02 14:48:23;;;;;;;14.38;7.10;;;11.40;60.10;;;;;;4993625;28;21266;-81
2022/02/02 14:51:08;;;;;;;26.17;14.18;;;11.40;59.80;;;;;;4976107;28;20029;-82
2022/02/02 14:53:46;;;;;;;18.30;10.75;;;11.40;59.80;;;;;;4976105;28;20026;-81
2022/02/02 15:10:13;;;;;;;21.98;10.75;;;11.20;60.90;;;;;;4993309;28;20482;-83
2022/02/02 15:28:50;;;;;;;18.30;8.60;;;10.90;61.80;;;;;;4990279;28;20030;-81
2022/02/02 15:31:16;;;;;;;19.87;12.13;;;10.90;61.80;;;;;;4991849;28;20383;-81
2022/02/02 15:33:45;;;;;;;15.90;9.25;;;10.90;62.00;;;;;;4990881;28;20557;-81
2022/02/02 15:38:55;;;;;;;23.97;8.80;;;10.80;62.20;;;;;;4995361;28;20065;-82
2022/02/02 15:41:29;;;;;;;18.33;8.53;;;10.80;62.30;;;;;;4996810;28;20106;-81
2022/02/02 15:54:46;;;;;;;19.43;9.00;;;10.60;63.00;;;;;;4996361;28;20487;-84
2022/02/02 16:05:12;;;;;;;45.33;19.63;;;10.40;63.90;;;;;;4996776;28;20033;-89
2022/02/02 16:07:38;;;;;;;40.70;20.13;;;10.30;64.10;;;;;;4979501;28;20586;-89
2022/02/02 16:10:06;;;;;;;30.07;16.17;;;10.30;64.30;;;;;;4996572;28;20050;-87
2022/02/02 16:12:41;;;;;;;36.60;16.50;;;10.20;64.30;;;;;;4978079;28;20042;-89
2022/02/02 16:36:48;;;;;;;7.27;2.90;;;10.00;55.10;;;;;;4994527;28;20085;-80
2022/02/02 16:39:21;;;;;;;3.23;2.10;;;10.10;53.60;;;;;;4993647;28;20015;-80
2022/02/02 16:44:30;;;;;;;2.27;1.20;;;10.10;47.90;;;;;;4994151;28;20049;-81
2022/02/02 16:46:57;;;;;;;2.47;1.20;;;10.10;43.10;;;;;;4993970;28;20034;-80
2022/02/02 16:49:23;;;;;;;13.73;7.93;;;10.20;43.70;;;;;;4994527;28;20138;-81
2022/02/02 16:51:49;;;;;;;15.97;7.97;;;10.30;47.40;;;;;;4995325;28;20101;-80
2022/02/02 16:54:51;;;;;;;10.80;6.27;;;10.30;52.30;;;;;;4994993;28;20034;-85
2022/02/02 16:58:03;;;;;;;12.20;5.60;;;10.30;55.80;;;;;;4991847;28;20045;-83
2022/02/02 17:33:18;;;;;;;8.63;3.57;;;9.40;65.00;;;;;;4981573;28;20559;-83
2022/02/02 18:20:33;;;;;;;12.77;5.80;;;8.90;68.20;;;;;;4994350;28;20030;-88
2022/02/02 18:28:22;;;;;;;16.90;11.70;;;8.80;68.30;;;;;;4994078;28;20053;-86
2022/02/02 18:33:30;;;;;;;16.17;8.60;;;8.80;68.60;;;;;;4993976;28;20034;-86
2022/02/02 18:36:15;;;;;;;17.77;9.97;;;8.80;68.90;;;;;;4993985;28;20023;-87
2022/02/02 18:49:53;;;;;;;19.50;10.10;;;8.70;68.80;;;;;;4993771;28;20076;-86
2022/02/02 19:00:34;;;;;;;15.20;9.07;;;8.70;68.30;;;;;;4994026;28;20042;-87
2022/02/02 19:03:34;;;;;;;18.58;10.40;;;8.70;68.20;;;;;;4978511;28;20105;-88
2022/02/02 19:55:32;;;;;;;23.23;12.70;;;8.10;67.40;;;;;;5000001;28;20038;-86
2022/02/02 20:04:07;;;;;;;22.00;12.27;;;8.00;66.80;;;;;;4997220;28;20030;-88
2022/02/02 20:07:08;;;;;;;19.53;12.23;;;7.90;66.30;;;;;;4979171;28;20058;-86
2022/02/02 20:12:16;;;;;;;34.83;21.47;;;7.70;66.40;;;;;;4996650;28;20030;-88
2022/02/02 20:14:42;;;;;;;30.47;18.80;;;7.70;66.80;;;;;;4977808;28;20451;-89
2022/02/02 20:17:15;;;;;;;21.10;12.17;;;7.60;67.10;;;;;;4996817;28;20026;-88
2022/02/02 20:19:52;;;;;;;18.37;11.60;;;7.70;67.30;;;;;;4979479;28;20109;-89
2022/02/02 20:22:21;;;;;;;22.00;13.47;;;7.60;67.60;;;;;;4978800;28;20027;-90
2022/02/02 20:24:57;;;;;;;21.90;12.20;;;7.60;67.50;;;;;;4979665;28;20033;-89
2022/02/02 20:27:24;;;;;;;19.40;12.90;;;7.50;67.90;;;;;;4981122;28;20029;-88
2022/02/02 20:29:50;;;;;;;23.73;13.43;;;7.60;68.30;;;;;;4979555;28;20034;-87
2022/02/02 20:32:22;;;;;;;20.97;13.30;;;7.60;68.50;;;;;;4996556;28;20026;-87
2022/02/02 20:34:48;;;;;;;22.27;12.77;;;7.60;68.50;;;;;;4996267;28;20487;-85
2022/02/02 20:37:16;;;;;;;20.67;13.23;;;7.60;68.40;;;;;;4979829;28;20028;-87
2022/02/02 20:40:00;;;;;;;26.27;15.53;;;7.60;68.20;;;;;;4979648;28;20130;-89
2022/02/02 20:42:34;;;;;;;16.63;11.90;;;7.60;68.20;;;;;;4979162;28;20042;-90
2022/02/02 21:14:59;;;;;;;20.67;12.53;;;7.30;69.20;;;;;;4995170;28;20549;-87
2022/02/02 21:17:32;;;;;;;21.37;12.40;;;7.30;69.00;;;;;;4978436;28;20034;-85
2022/02/02 21:22:46;;;;;;;20.33;12.27;;;7.40;69.10;;;;;;4994781;28;20030;-88
2022/02/02 21:26:18;;;;;;;23.77;12.83;;;7.40;68.60;;;;;;4976505;28;20278;-89
2022/02/02 21:28:09;;;;;;;23.73;14.00;;;7.30;68.20;;;;;;4981929;28;20058;-87
2022/02/02 21:30:37;;;;;;;22.50;13.33;;;7.30;68.70;;;;;;4977828;28;20501;-88
2022/02/02 21:33:04;;;;;;;21.77;13.53;;;7.30;68.30;;;;;;4977923;28;20031;-91
2022/02/02 21:35:30;;;;;;;19.70;13.43;;;7.20;68.30;;;;;;4978596;28;20077;-89
2022/02/02 21:38:02;;;;;;;21.67;13.37;;;7.20;68.40;;;;;;4978347;28;20057;-89
2022/02/02 21:40:29;;;;;;;25.02;15.25;;;7.20;68.70;;;;;;4978303;28;20031;-87
2022/02/02 21:42:59;;;;;;;26.37;16.43;;;7.20;68.90;;;;;;4977890;28;20113;-89
2022/02/02 21:45:28;;;;;;;27.07;15.40;;;7.20;68.70;;;;;;4995469;28;20118;-89
2022/02/02 21:47:54;;;;;;;27.60;15.63;;;7.10;68.20;;;;;;4977685;28;20391;-81
2022/02/02 21:50:20;;;;;;;26.30;15.97;;;7.00;68.30;;;;;;4994512;28;20033;-83
2022/02/02 21:52:48;;;;;;;33.00;15.83;;;7.00;68.60;;;;;;4994783;28;20030;-81
2022/02/02 21:55:15;;;;;;;21.50;14.33;;;6.90;68.90;;;;;;4994375;28;20038;-82
2022/02/02 21:57:41;;;;;;;24.13;14.27;;;6.90;69.00;;;;;;4993911;28;20022;-84
2022/02/02 22:00:12;;;;;;;21.03;13.80;;;6.90;69.20;;;;;;4994232;28;20391;-82
2022/02/02 22:02:39;;;;;;;24.27;13.70;;;6.80;69.30;;;;;;4993739;28;20030;-82
2022/02/02 22:05:07;;;;;;;22.50;14.77;;;6.80;69.40;;;;;;4992258;28;20030;-83
2022/02/02 22:07:33;;;;;;;26.37;16.70;;;6.80;69.10;;;;;;4992655;28;20130;-83
2022/02/02 22:10:00;;;;;;;19.50;12.87;;;6.70;68.40;;;;;;5024649;23;20092;-87
2022/02/02 22:12:27;;;;;;;17.17;11.27;;;6.60;68.00;;;;;;5013095;28;20049;-85
2022/02/02 22:14:54;;;;;;;22.77;14.37;;;6.50;67.60;;;;;;5013183;28;20525;-87
2022/02/02 22:17:23;;;;;;;22.53;16.10;;;6.30;68.40;;;;;;5013330;28;20108;-86
2022/02/02 22:19:52;;;;;;;24.23;16.03;;;6.30;69.40;;;;;;5012780;28;20026;-85
2022/02/02 22:22:18;;;;;;;24.27;15.77;;;6.20;69.80;;;;;;5013213;28;20069;-87
2022/02/02 22:24:43;;;;;;;25.60;15.47;;;6.20;70.00;;;;;;5014137;28;20560;-87
2022/02/02 22:27:10;;;;;;;26.77;16.07;;;6.10;70.20;;;;;;5013216;28;20497;-85
2022/02/02 22:29:36;;;;;;;24.20;15.47;;;6.10;70.50;;;;;;5012743;28;20483;-84
2022/02/02 22:32:03;;;;;;;24.10;15.77;;;6.10;70.50;;;;;;5012683;28;20061;-86
2022/02/02 22:34:29;;;;;;;24.57;15.27;;;6.10;71.10;;;;;;5014264;28;20494;-87
2022/02/02 22:36:56;;;;;;;26.00;14.90;;;6.10;70.50;;;;;;5012886;28;20022;-86
2022/02/02 22:39:22;;;;;;;23.83;14.63;;;6.10;70.40;;;;;;5012695;28;20021;-87
2022/02/02 22:41:49;;;;;;;24.20;14.17;;;6.10;70.20;;;;;;5013066;28;20022;-85
2022/02/02 22:44:16;;;;;;;29.07;14.70;;;6.10;70.10;;;;;;5013208;28;20014;-86
2022/02/02 22:46:42;;;;;;;23.93;15.03;;;6.10;70.40;;;;;;5012573;28;20025;-86
2022/02/02 22:49:08;;;;;;;27.50;15.37;;;6.10;70.40;;;;;;5013720;28;20033;-85
2022/02/02 22:51:35;;;;;;;24.40;14.67;;;6.00;70.40;;;;;;5014221;28;20477;-87
2022/02/02 22:54:02;;;;;;;23.37;14.90;;;6.00;70.50;;;;;;5012679;28;20026;-86
2022/02/02 22:56:27;;;;;;;24.20;15.57;;;5.90;70.40;;;;;;5012700;28;20026;-87
2022/02/02 22:58:56;;;;;;;25.23;14.57;;;5.80;70.20;;;;;;5012988;28;20022;-88
2022/02/02 23:01:21;;;;;;;29.20;16.07;;;5.80;70.30;;;;;;5012726;28;20034;-85
2022/02/02 23:03:49;;;;;;;29.10;16.90;;;5.80;70.50;;;;;;5012744;28;20045;-85
2022/02/02 23:06:15;;;;;;;37.47;16.50;;;5.80;70.60;;;;;;5012315;28;20398;-86
2022/02/02 23:08:41;;;;;;;31.33;16.33;;;5.80;70.70;;;;;;5012259;28;20056;-85
2022/02/02 23:11:07;;;;;;;29.97;15.87;;;5.80;70.50;;;;;;5013623;28;20032;-87
2022/02/02 23:13:33;;;;;;;29.17;16.20;;;5.80;70.10;;;;;;5012248;28;20034;-87
2022/02/02 23:16:07;;;;;;;25.37;15.93;;;5.80;70.30;;;;;;5012273;28;20041;-87
2022/02/02 23:18:36;;;;;;;25.20;15.70;;;5.80;69.90;;;;;;5012537;28;20033;-86
2022/02/02 23:21:07;;;;;;;25.60;16.70;;;5.70;69.90;;;;;;5012458;28;20390;-87
2022/02/02 23:23:43;;;;;;;39.87;21.53;;;5.70;70.40;;;;;;5013525;28;20097;-86
2022/02/02 23:26:10;;;;;;;31.33;20.57;;;5.60;70.20;;;;;;5012605;28;20112;-85
2022/02/02 23:28:42;;;;;;;36.67;19.80;;;5.60;70.80;;;;;;5012114;28;20113;-86
2022/02/02 23:31:10;;;;;;;27.30;17.93;;;5.60;71.00;;;;;;5013660;28;20049;-87
2022/02/02 23:33:38;;;;;;;33.90;18.33;;;5.60;71.20;;;;;;5012227;28;20053;-87
2022/02/02 23:36:04;;;;;;;26.73;16.43;;;5.60;71.00;;;;;;5011883;28;20034;-86
2022/02/02 23:38:31;;;;;;;28.33;15.40;;;5.60;71.80;;;;;;5012021;28;20037;-86
2022/02/02 23:43:41;;;;;;;28.97;14.97;;;5.60;71.00;;;;;;5013446;28;20045;-86
2022/02/02 23:46:15;;;;;;;22.23;13.67;;;5.60;70.20;;;;;;5011722;28;20030;-87
2022/02/02 23:48:46;;;;;;;24.13;13.33;;;5.60;70.20;;;;;;5012032;28;20041;-86
2022/02/02 23:51:28;;;;;;;24.03;14.97;;;5.50;70.20;;;;;;5011962;28;20056;-85
2022/02/02 23:53:58;;;;;;;21.57;14.67;;;5.60;70.30;;;;;;5012162;28;20034;-86
2022/02/02 23:56:58;;;;;;;22.33;14.13;;;5.50;69.80;;;;;;5014237;28;20124;-85
2022/02/02 23:59:38;;;;;;;23.20;15.47;;;5.50;69.70;;;;;;5015728;28;20032;-85
